createdAt,value
2023-01-12T00:01:17.869Z,17.10
2023-01-12T00:04:23.682Z,19.75
2023-01-12T00:07:29.672Z,14.45
2023-01-12T00:10:35.146Z,15.73
2023-01-12T00:13:40.295Z,17.23
2023-01-12T00:16:45.768Z,19.40
2023-01-12T00:19:51.745Z,18.70
2023-01-12T00:22:58.623Z,17.90
2023-01-12T00:26:04.462Z,17.83
2023-01-12T00:29:09.860Z,17.88
2023-01-12T00:32:18.989Z,15.57
2023-01-12T00:35:24.621Z,14.52
2023-01-12T00:38:30.544Z,20.83
2023-01-12T00:41:56.622Z,17.42
2023-01-12T00:45:20.610Z,20.73
2023-01-12T00:48:26.150Z,20.15
2023-01-12T00:51:31.584Z,24.63
2023-01-12T00:54:37.196Z,20.33
2023-01-12T00:57:43.295Z,18.85
2023-01-12T01:00:48.476Z,18.38
2023-01-12T01:03:54.989Z,13.88
2023-01-12T01:07:01.285Z,18.75
2023-01-12T01:10:07.962Z,14.80
2023-01-12T01:13:13.595Z,15.32
2023-01-12T01:16:19.378Z,18.27
2023-01-12T01:19:25.048Z,16.30
2023-01-12T01:22:30.897Z,14.15
2023-01-12T01:25:36.208Z,15.68
2023-01-12T01:28:43.131Z,17.67
2023-01-12T01:31:48.552Z,18.33
2023-01-12T01:34:54.232Z,17.52
2023-01-12T01:37:59.702Z,16.15
2023-01-12T01:41:07.262Z,17.30
2023-01-12T01:44:31.839Z,16.50
2023-01-12T01:47:43.249Z,18.35
2023-01-12T01:50:57.768Z,18.23
2023-01-12T01:54:03.838Z,19.08
2023-01-12T01:57:12.375Z,14.52
2023-01-12T02:00:19.927Z,16.55
2023-01-12T02:03:26.950Z,14.82
2023-01-12T02:06:32.552Z,15.77
2023-01-12T02:09:37.903Z,16.23
2023-01-12T02:13:02.107Z,13.98
2023-01-12T02:16:30.629Z,14.75
2023-01-12T02:20:11.990Z,13.00
2023-01-12T02:23:22.936Z,15.82
2023-01-12T02:27:06.946Z,15.48
2023-01-12T02:30:26.843Z,12.43
2023-01-12T02:33:50.094Z,14.77
2023-01-12T02:37:04.527Z,15.77
2023-01-12T02:40:17.418Z,18.17
2023-01-12T02:43:31.335Z,16.33
2023-01-12T02:46:40.803Z,15.52
2023-01-12T02:49:51.786Z,15.75
2023-01-12T02:53:04.828Z,13.75
2023-01-12T02:56:13.938Z,15.85
2023-01-12T02:59:27.530Z,13.75
2023-01-12T03:02:34.296Z,14.80
2023-01-12T03:05:43.217Z,12.18
2023-01-12T03:08:49.531Z,11.85
2023-01-12T03:12:06.038Z,15.68
2023-01-12T03:15:15.536Z,16.42
2023-01-12T03:18:31.881Z,12.07
2023-01-12T03:21:41.147Z,12.20
2023-01-12T03:24:51.046Z,14.70
2023-01-12T03:28:00.206Z,12.77
2023-01-12T03:31:12.644Z,18.77
2023-01-12T03:34:18.366Z,9.65
2023-01-12T03:38:01.051Z,13.82
2023-01-12T03:44:24.616Z,14.68
2023-01-12T03:47:31.636Z,14.68
2023-01-12T03:51:02.804Z,11.73
2023-01-12T03:54:11.616Z,13.80
2023-01-12T03:57:17.981Z,10.65
2023-01-12T04:00:27.692Z,10.32
2023-01-12T04:03:33.507Z,11.20
2023-01-12T04:06:39.045Z,14.65
2023-01-12T04:09:44.071Z,12.43
2023-01-12T04:12:49.564Z,12.27
2023-01-12T04:15:55.008Z,12.30
2023-01-12T04:19:00.378Z,21.13
2023-01-12T04:22:25.026Z,18.73
2023-01-12T04:25:30.888Z,13.27
2023-01-12T04:28:36.831Z,13.80
2023-01-12T04:31:42.455Z,12.77
2023-01-12T04:34:48.022Z,10.73
2023-01-12T04:37:54.383Z,10.60
2023-01-12T04:41:00.131Z,13.35
2023-01-12T04:44:05.625Z,13.75
2023-01-12T04:47:11.226Z,8.50
2023-01-12T04:50:16.911Z,13.13
2023-01-12T04:53:24.934Z,14.23
2023-01-12T04:56:31.366Z,9.05
2023-01-12T04:59:36.882Z,9.88
2023-01-12T05:02:42.891Z,14.90
2023-01-12T05:05:48.462Z,13.18
2023-01-12T05:09:12.779Z,9.90
2023-01-12T05:12:18.373Z,8.85
2023-01-12T05:15:24.412Z,9.35
2023-01-12T05:18:29.990Z,13.15
2023-01-12T05:21:35.425Z,8.20
2023-01-12T05:24:40.968Z,11.85
2023-01-12T05:27:46.525Z,8.82
2023-01-12T05:30:51.967Z,8.38
2023-01-12T05:33:57.775Z,12.45
2023-01-12T05:37:03.355Z,7.70
2023-01-12T05:40:09.593Z,12.50
2023-01-12T05:43:33.917Z,10.25
2023-01-12T05:46:44.551Z,10.45
2023-01-12T05:49:49.888Z,14.10
2023-01-12T05:52:55.319Z,13.70
2023-01-12T05:56:08.729Z,13.35
2023-01-12T05:59:14.327Z,15.60
2023-01-12T06:02:21.783Z,23.15
2023-01-12T06:05:27.805Z,19.13
2023-01-12T06:08:33.370Z,21.58
2023-01-12T06:11:57.814Z,18.48
2023-01-12T06:15:03.125Z,20.02
2023-01-12T06:18:08.889Z,16.65
2023-01-12T06:21:14.609Z,15.65
2023-01-12T06:24:20.046Z,14.45
2023-01-12T06:27:25.977Z,17.95
2023-01-12T06:30:30.965Z,18.70
2023-01-12T06:33:36.571Z,18.00
2023-01-12T06:36:42.169Z,18.00
2023-01-12T06:39:47.778Z,17.42
2023-01-12T06:42:53.370Z,17.30
2023-01-12T06:45:59.536Z,17.42
2023-01-12T06:49:04.978Z,16.20
2023-01-12T06:52:10.996Z,18.90
2023-01-12T06:55:15.952Z,13.82
2023-01-12T06:58:20.898Z,24.83
2023-01-12T07:01:27.721Z,17.85
2023-01-12T07:04:33.149Z,18.55
2023-01-12T07:07:40.206Z,24.80
2023-01-12T07:10:46.784Z,16.45
2023-01-12T07:13:52.424Z,18.60
2023-01-12T07:16:58.272Z,18.98
2023-01-12T07:20:03.713Z,18.23
2023-01-12T07:23:09.204Z,17.67
2023-01-12T07:26:14.650Z,23.45
2023-01-12T07:29:20.077Z,23.77
2023-01-12T07:32:27.364Z,25.65
2023-01-12T07:35:32.432Z,29.40
2023-01-12T07:38:38.523Z,21.98
2023-01-12T07:42:03.082Z,19.35
2023-01-12T07:45:09.124Z,22.75
2023-01-12T07:48:16.591Z,19.75
2023-01-12T07:51:22.247Z,21.67
2023-01-12T07:54:27.875Z,22.05
2023-01-12T07:57:33.260Z,21.77
2023-01-12T08:00:38.822Z,19.00
2023-01-12T08:03:44.017Z,18.48
2023-01-12T08:06:49.280Z,24.40
2023-01-12T08:09:54.803Z,21.77
2023-01-12T08:13:00.264Z,21.88
2023-01-12T08:16:12.850Z,26.63
2023-01-12T08:19:25.287Z,26.17
2023-01-12T08:22:38.182Z,28.15
2023-01-12T08:25:54.879Z,20.45
2023-01-12T08:29:14.644Z,21.05
2023-01-12T08:32:20.948Z,23.92
2023-01-12T08:35:29.623Z,24.33
2023-01-12T08:38:35.650Z,25.35
2023-01-12T08:41:42.799Z,26.45
2023-01-12T08:44:48.921Z,28.83
2023-01-12T08:47:54.247Z,27.63
2023-01-12T08:51:00.079Z,28.15
2023-01-12T08:54:07.466Z,25.80
2023-01-12T08:57:12.994Z,37.25
2023-01-12T09:00:19.817Z,30.33
2023-01-12T09:03:25.107Z,36.25
2023-01-12T09:06:32.789Z,41.40
2023-01-12T09:09:38.707Z,47.42
2023-01-12T09:12:44.939Z,80.60
2023-01-12T09:16:01.363Z,84.13
2023-01-12T09:19:16.911Z,48.30
2023-01-12T09:22:23.444Z,38.83
2023-01-12T09:25:28.845Z,26.05
2023-01-12T09:28:35.302Z,25.15
2023-01-12T09:31:43.909Z,21.73
2023-01-12T09:34:50.019Z,32.58
2023-01-12T09:37:55.715Z,21.98
2023-01-12T09:41:09.115Z,17.77
2023-01-12T09:44:48.357Z,19.38
2023-01-12T09:48:01.536Z,23.90
2023-01-12T09:51:19.057Z,21.38
2023-01-12T09:54:24.675Z,22.17
2023-01-12T09:57:38.927Z,25.05
2023-01-12T10:00:54.818Z,18.73
2023-01-12T10:04:01.917Z,21.92
2023-01-12T10:07:15.034Z,23.20
2023-01-12T10:10:20.615Z,22.20
2023-01-12T10:13:33.786Z,27.13
2023-01-12T10:17:03.110Z,21.70
2023-01-12T10:20:08.943Z,23.00
2023-01-12T10:23:24.889Z,26.92
2023-01-12T10:26:42.335Z,31.27
2023-01-12T10:29:48.698Z,28.75
2023-01-12T10:32:54.233Z,26.45
2023-01-12T10:36:08.968Z,23.63
2023-01-12T10:39:26.900Z,22.38
2023-01-12T10:42:50.584Z,20.88
2023-01-12T10:46:10.790Z,20.10
2023-01-12T10:49:22.447Z,23.73
2023-01-12T10:52:40.318Z,22.63
2023-01-12T10:55:47.704Z,20.63
2023-01-12T10:59:04.097Z,20.23
2023-01-12T11:02:09.714Z,19.85
2023-01-12T11:05:38.729Z,23.17
2023-01-12T11:08:44.491Z,24.23
2023-01-12T11:11:58.239Z,19.98
2023-01-12T11:15:23.739Z,27.55
2023-01-12T11:18:46.953Z,21.02
2023-01-12T11:22:01.684Z,22.02
2023-01-12T11:25:21.028Z,22.48
2023-01-12T11:28:45.605Z,14.63
2023-01-12T11:31:55.494Z,19.00
2023-01-12T11:35:06.383Z,16.27
2023-01-12T11:38:18.023Z,12.23
2023-01-12T11:41:35.583Z,12.98
2023-01-12T11:44:48.028Z,18.80
2023-01-12T11:48:00.725Z,14.23
2023-01-12T11:51:06.026Z,14.15
2023-01-12T11:54:17.746Z,12.60
2023-01-12T12:00:53.847Z,21.27
2023-01-12T12:04:04.627Z,20.58
2023-01-12T12:07:16.427Z,21.25
2023-01-12T12:10:53.946Z,15.77
2023-01-12T12:14:21.507Z,16.77
2023-01-12T12:18:06.091Z,16.02
2023-01-12T12:21:30.232Z,17.42
2023-01-12T12:25:03.847Z,15.90
2023-01-12T12:28:43.849Z,16.23
2023-01-12T12:31:59.163Z,14.10
2023-01-12T12:35:21.152Z,12.52
2023-01-12T12:39:07.720Z,14.95
2023-01-12T12:42:40.730Z,17.00
2023-01-12T12:46:13.844Z,21.17
2023-01-12T12:49:26.411Z,18.25
2023-01-12T12:52:36.298Z,20.50
2023-01-12T12:55:43.035Z,17.58
2023-01-12T12:58:54.564Z,16.85
2023-01-12T13:02:02.904Z,15.43
2023-01-12T13:05:10.440Z,17.85
2023-01-12T13:08:24.579Z,13.40
2023-01-12T13:11:59.333Z,20.05
2023-01-12T13:15:22.982Z,25.45
2023-01-12T13:19:02.913Z,18.15
2023-01-12T13:22:44.568Z,22.63
2023-01-12T13:25:57.533Z,17.15
2023-01-12T13:29:24.493Z,28.65
2023-01-12T13:32:35.757Z,19.73
2023-01-12T13:35:40.926Z,13.63
2023-01-12T13:39:03.467Z,16.40
2023-01-12T13:42:34.427Z,16.33
2023-01-12T13:45:40.070Z,17.52
2023-01-12T13:48:52.558Z,18.27
2023-01-12T13:52:06.019Z,15.82
2023-01-12T13:55:22.808Z,14.20
2023-01-12T13:58:37.255Z,19.75
2023-01-12T14:01:46.183Z,18.25
2023-01-12T14:05:12.303Z,23.38
2023-01-12T14:08:50.558Z,17.63
2023-01-12T14:12:34.761Z,14.85
2023-01-12T14:15:59.996Z,18.60
2023-01-12T14:19:41.981Z,22.30
2023-01-12T14:22:47.390Z,15.45
2023-01-12T14:26:10.451Z,13.05
2023-01-12T14:29:15.929Z,15.65
2023-01-12T14:32:24.082Z,16.52
2023-01-12T14:35:29.405Z,17.52
2023-01-12T14:38:35.353Z,15.65
2023-01-12T14:41:59.036Z,16.60
2023-01-12T14:45:53.286Z,18.13
2023-01-12T14:49:41.311Z,21.13
2023-01-12T14:52:48.764Z,21.42
2023-01-12T14:55:54.463Z,19.65
2023-01-12T14:59:33.632Z,22.10
2023-01-12T15:02:41.629Z,23.42
2023-01-12T15:05:51.882Z,20.00
2023-01-12T15:09:00.793Z,20.27
2023-01-12T15:12:28.580Z,24.98
2023-01-12T15:15:52.865Z,22.15
2023-01-12T15:19:16.896Z,27.67
2023-01-12T15:22:47.584Z,29.58
2023-01-12T15:25:52.908Z,26.25
2023-01-12T15:28:58.556Z,20.83
2023-01-12T15:32:05.768Z,23.83
2023-01-12T15:35:24.111Z,19.13
2023-01-12T15:38:29.498Z,25.70
2023-01-12T15:41:55.042Z,22.55
2023-01-12T15:45:00.533Z,23.55
2023-01-12T15:48:07.356Z,24.33
2023-01-12T15:51:16.600Z,31.65
2023-01-12T15:54:22.123Z,29.60
2023-01-12T15:57:27.531Z,28.90
2023-01-12T16:00:32.731Z,24.20
2023-01-12T16:04:02.663Z,28.27
2023-01-12T16:07:03.973Z,27.35
2023-01-12T16:10:10.200Z,30.33
2023-01-12T16:13:15.848Z,31.77
2023-01-12T16:16:21.687Z,32.03
2023-01-12T16:19:28.722Z,33.03
2023-01-12T16:22:34.573Z,27.88
2023-01-12T16:25:40.399Z,32.28
2023-01-12T16:28:45.872Z,30.42
2023-01-12T16:31:51.567Z,29.48
2023-01-12T16:34:57.136Z,34.67
2023-01-12T16:38:02.804Z,28.25
2023-01-12T16:41:15.143Z,27.70
2023-01-12T16:44:20.620Z,26.13
2023-01-12T16:47:25.923Z,28.60
2023-01-12T16:50:31.208Z,28.88
2023-01-12T16:53:36.790Z,27.50
2023-01-12T16:56:42.911Z,39.67
2023-01-12T16:59:50.197Z,35.60
2023-01-12T17:02:57.061Z,28.67
2023-01-12T17:06:07.107Z,33.97
2023-01-12T17:09:12.845Z,25.17
2023-01-12T17:12:18.623Z,36.58
2023-01-12T17:15:23.920Z,40.10
2023-01-12T17:18:29.613Z,31.10
2023-01-12T17:21:35.328Z,30.20
2023-01-12T17:24:41.348Z,35.13
2023-01-12T17:27:47.010Z,34.90
2023-01-12T17:30:52.831Z,35.60
2023-01-12T17:33:57.928Z,45.10
2023-01-12T17:37:08.506Z,33.35
2023-01-12T17:40:14.220Z,31.50
2023-01-12T17:43:19.717Z,35.10
2023-01-12T17:46:25.581Z,33.33
2023-01-12T17:49:31.311Z,41.95
2023-01-12T17:52:36.799Z,44.15
2023-01-12T17:55:48.254Z,32.17
2023-01-12T17:58:55.753Z,45.10
2023-01-12T18:02:01.147Z,39.13
2023-01-12T18:05:07.112Z,42.05
2023-01-12T18:08:12.823Z,37.92
2023-01-12T18:11:18.812Z,33.72
2023-01-12T18:14:25.432Z,31.77
2023-01-12T18:17:31.820Z,35.65
2023-01-12T18:20:37.210Z,33.35
2023-01-12T18:23:43.731Z,39.35
2023-01-12T18:26:51.105Z,43.35
2023-01-12T18:29:56.671Z,35.88
2023-01-12T18:33:03.929Z,40.22
2023-01-12T18:36:16.434Z,34.83
2023-01-12T18:42:45.827Z,30.83
2023-01-12T18:45:51.188Z,36.28
2023-01-12T18:48:56.628Z,36.20
2023-01-12T18:52:21.360Z,35.58
2023-01-12T18:55:26.669Z,35.70
2023-01-12T18:58:34.888Z,34.63
2023-01-12T19:01:40.620Z,39.28
2023-01-12T19:04:52.681Z,38.53
2023-01-12T19:07:58.311Z,42.33
2023-01-12T19:11:11.694Z,34.50
2023-01-12T19:14:35.211Z,35.30
2023-01-12T19:17:42.075Z,40.55
2023-01-12T19:20:47.816Z,38.08
2023-01-12T19:24:11.211Z,37.63
2023-01-12T19:27:45.944Z,43.00
2023-01-12T19:30:52.061Z,36.50
2023-01-12T19:33:57.499Z,42.25
2023-01-12T19:37:03.242Z,39.50
2023-01-12T19:40:30.085Z,33.65
2023-01-12T19:43:37.902Z,36.67
2023-01-12T19:46:43.765Z,36.22
2023-01-12T19:49:49.464Z,40.35
2023-01-12T19:52:56.042Z,30.88
2023-01-12T19:56:02.185Z,35.38
2023-01-12T19:59:07.704Z,37.30
2023-01-12T20:02:14.379Z,38.67
2023-01-12T20:05:23.077Z,36.45
2023-01-12T20:08:28.768Z,33.75
2023-01-12T20:11:34.634Z,41.92
2023-01-12T20:14:40.046Z,31.45
2023-01-12T20:17:45.638Z,32.72
2023-01-12T20:20:53.554Z,42.50
2023-01-12T20:23:58.786Z,37.13
2023-01-12T20:27:04.263Z,41.25
2023-01-12T20:30:11.307Z,36.72
2023-01-12T20:33:17.498Z,39.65
2023-01-12T20:36:23.335Z,32.47
2023-01-12T20:39:30.855Z,35.03
2023-01-12T20:42:37.780Z,36.05
2023-01-12T20:45:45.461Z,35.70
2023-01-12T20:48:52.020Z,47.60
2023-01-12T20:52:00.414Z,99.55
2023-01-12T20:55:07.211Z,69.57
2023-01-12T20:58:13.841Z,54.35
2023-01-12T21:01:20.371Z,42.00
2023-01-12T21:04:26.304Z,34.90
2023-01-12T21:07:32.526Z,39.40
2023-01-12T21:10:40.525Z,38.22
2023-01-12T21:13:47.575Z,44.10
2023-01-12T21:16:53.684Z,37.75
2023-01-12T21:20:00.097Z,39.72
2023-01-12T21:23:05.910Z,35.05
2023-01-12T21:26:12.078Z,41.67
2023-01-12T21:29:18.230Z,38.60
2023-01-12T21:32:27.469Z,36.28
2023-01-12T21:35:33.155Z,36.00
2023-01-12T21:38:39.078Z,35.28
2023-01-12T21:42:03.024Z,39.70
2023-01-12T21:45:09.684Z,38.08
2023-01-12T21:48:17.676Z,44.15
2023-01-12T21:51:23.722Z,41.22
2023-01-12T21:54:29.298Z,39.45
2023-01-12T21:57:35.365Z,35.47
2023-01-12T22:00:42.220Z,35.92
2023-01-12T22:03:47.915Z,40.95
2023-01-12T22:06:53.532Z,37.63
2023-01-12T22:10:19.325Z,43.80
2023-01-12T22:13:25.027Z,43.55
2023-01-12T22:16:30.724Z,40.15
2023-01-12T22:19:38.650Z,46.90
2023-01-12T22:22:45.453Z,41.22
2023-01-12T22:25:50.973Z,36.72
2023-01-12T22:28:56.842Z,38.40
2023-01-12T22:32:02.660Z,41.08
2023-01-12T22:35:09.102Z,36.80
2023-01-12T22:38:14.557Z,35.95
2023-01-12T22:41:22.753Z,46.17
2023-01-12T22:44:28.417Z,40.30
2023-01-12T22:47:47.250Z,40.22
2023-01-12T22:50:54.996Z,41.45
2023-01-12T22:54:00.492Z,39.42
2023-01-12T22:57:07.042Z,37.92
2023-01-12T23:00:13.270Z,38.15
2023-01-12T23:03:19.761Z,39.00
2023-01-12T23:06:26.860Z,39.08
2023-01-12T23:09:32.528Z,47.58
2023-01-12T23:12:38.068Z,41.63
2023-01-12T23:15:48.900Z,40.75
2023-01-12T23:18:55.820Z,44.45
2023-01-12T23:22:01.504Z,37.33
2023-01-12T23:25:07.370Z,35.42
2023-01-12T23:28:14.289Z,38.95
2023-01-12T23:31:21.904Z,41.53
2023-01-12T23:34:29.110Z,39.63
2023-01-12T23:37:34.349Z,45.10
2023-01-12T23:40:39.639Z,45.70
2023-01-12T23:43:46.792Z,44.63
2023-01-12T23:46:54.163Z,41.85
2023-01-12T23:49:59.734Z,43.03
2023-01-12T23:53:05.549Z,44.58
2023-01-12T23:56:14.262Z,42.55
2023-01-12T23:59:19.952Z,43.85
